createdAt,value
2023-01-19T00:01:09.620Z,1.60
2023-01-19T00:03:39.704Z,1.50
2023-01-19T00:06:09.614Z,1.50
2023-01-19T00:08:39.146Z,1.40
2023-01-19T00:11:08.551Z,1.40
2023-01-19T00:13:38.530Z,1.30
2023-01-19T00:16:08.563Z,1.20
2023-01-19T00:18:37.635Z,1.20
2023-01-19T00:21:08.293Z,1.30
2023-01-19T00:23:37.483Z,1.40
2023-01-19T00:26:06.657Z,1.40
2023-01-19T00:28:35.939Z,1.50
2023-01-19T00:31:04.876Z,1.60
2023-01-19T00:33:34.191Z,1.60
2023-01-19T00:36:03.111Z,1.50
2023-01-19T00:38:33.657Z,1.40
2023-01-19T00:41:02.579Z,1.30
2023-01-19T00:43:31.594Z,1.40
2023-01-19T00:46:00.676Z,1.30
2023-01-19T00:48:30.807Z,1.10
2023-01-19T00:51:00.112Z,1.10
2023-01-19T00:53:32.703Z,1.10
2023-01-19T00:56:03.425Z,1.20
2023-01-19T00:58:32.327Z,1.40
2023-01-19T01:01:04.808Z,1.40
2023-01-19T01:03:34.458Z,1.30
2023-01-19T01:06:03.800Z,1.30
2023-01-19T01:08:32.753Z,1.30
2023-01-19T01:11:03.398Z,1.30
2023-01-19T01:13:32.811Z,1.20
2023-01-19T01:16:02.000Z,1.20
2023-01-19T01:18:30.902Z,1.10
2023-01-19T01:21:03.172Z,1.20
2023-01-19T01:23:32.367Z,1.10
2023-01-19T01:26:03.153Z,1.10
2023-01-19T01:28:32.559Z,1.10
2023-01-19T01:31:01.631Z,1.10
2023-01-19T01:33:40.953Z,1.10
2023-01-19T01:36:11.744Z,1.10
2023-01-19T01:38:41.085Z,1.10
2023-01-19T01:41:12.209Z,1.20
2023-01-19T01:43:47.136Z,1.20
2023-01-19T01:46:17.399Z,1.30
2023-01-19T01:48:51.148Z,1.30
2023-01-19T01:51:25.617Z,1.30
2023-01-19T01:54:08.159Z,1.20
2023-01-19T01:56:41.029Z,1.20
2023-01-19T01:59:18.068Z,1.20
2023-01-19T02:02:18.821Z,1.20
2023-01-19T02:04:52.352Z,1.20
2023-01-19T02:07:45.456Z,1.10
2023-01-19T02:10:31.694Z,1.10
2023-01-19T02:13:21.426Z,1.00
2023-01-19T02:15:52.852Z,1.00
2023-01-19T02:18:23.909Z,1.10
2023-01-19T02:21:00.530Z,1.20
2023-01-19T02:23:40.668Z,1.20
2023-01-19T02:26:11.532Z,1.10
2023-01-19T02:28:43.278Z,1.20
2023-01-19T02:31:12.919Z,1.20
2023-01-19T02:33:41.963Z,1.00
2023-01-19T02:36:15.245Z,1.00
2023-01-19T02:38:47.266Z,1.00
2023-01-19T02:41:20.707Z,1.00
2023-01-19T02:43:51.377Z,1.00
2023-01-19T02:46:20.495Z,1.10
2023-01-19T02:48:49.461Z,1.00
2023-01-19T02:51:22.566Z,1.10
2023-01-19T02:54:14.751Z,1.10
2023-01-19T02:56:56.439Z,1.00
2023-01-19T02:59:37.255Z,1.00
2023-01-19T03:02:23.166Z,0.90
2023-01-19T03:05:14.290Z,0.90
2023-01-19T03:08:01.224Z,0.80
2023-01-19T03:10:37.724Z,0.80
2023-01-19T03:13:14.268Z,0.80
2023-01-19T03:15:48.281Z,0.70
2023-01-19T03:18:22.570Z,0.80
2023-01-19T03:20:54.921Z,0.80
2023-01-19T03:23:29.054Z,0.90
2023-01-19T03:26:01.584Z,1.00
2023-01-19T03:28:32.289Z,1.00
2023-01-19T03:31:06.341Z,0.90
2023-01-19T03:33:38.708Z,0.90
2023-01-19T03:36:14.408Z,0.90
2023-01-19T03:38:44.470Z,1.00
2023-01-19T03:41:18.095Z,0.90
2023-01-19T03:43:51.387Z,0.90
2023-01-19T03:46:22.067Z,0.90
2023-01-19T03:48:51.598Z,0.90
2023-01-19T03:51:20.775Z,0.80
2023-01-19T03:53:50.117Z,0.90
2023-01-19T03:56:22.803Z,0.90
2023-01-19T03:58:52.468Z,0.90
2023-01-19T04:01:23.006Z,0.90
2023-01-19T04:03:52.754Z,0.80
2023-01-19T04:06:22.486Z,0.90
2023-01-19T04:08:52.876Z,0.90
2023-01-19T04:11:23.341Z,0.90
2023-01-19T04:13:52.459Z,0.90
2023-01-19T04:16:21.618Z,0.90
2023-01-19T04:18:50.775Z,1.00
2023-01-19T04:21:20.299Z,1.00
2023-01-19T04:23:49.983Z,1.10
2023-01-19T04:26:18.982Z,1.10
2023-01-19T04:28:49.632Z,1.10
2023-01-19T04:31:19.388Z,1.00
2023-01-19T04:33:48.393Z,1.00
2023-01-19T04:36:17.631Z,0.90
2023-01-19T04:38:48.672Z,0.90
2023-01-19T04:41:18.399Z,1.00
2023-01-19T04:43:49.027Z,1.10
2023-01-19T04:46:18.106Z,1.10
2023-01-19T04:48:46.878Z,1.10
2023-01-19T04:51:15.946Z,1.10
2023-01-19T04:53:45.009Z,1.10
2023-01-19T04:56:14.046Z,1.10
2023-01-19T04:58:43.101Z,1.10
2023-01-19T05:01:14.034Z,1.10
2023-01-19T05:03:43.099Z,1.10
2023-01-19T05:06:12.084Z,1.10
2023-01-19T05:08:41.273Z,1.10
2023-01-19T05:11:10.287Z,1.00
2023-01-19T05:13:39.429Z,1.00
2023-01-19T05:16:09.353Z,1.00
2023-01-19T05:18:40.415Z,0.90
2023-01-19T05:21:09.526Z,1.00
2023-01-19T05:23:38.455Z,0.90
2023-01-19T05:26:09.456Z,0.90
2023-01-19T05:28:38.935Z,0.90
2023-01-19T05:31:08.261Z,0.90
2023-01-19T05:33:37.440Z,0.90
2023-01-19T05:36:08.504Z,0.80
2023-01-19T05:38:37.543Z,0.90
2023-01-19T05:41:06.947Z,0.80
2023-01-19T05:43:35.988Z,0.80
2023-01-19T05:46:06.573Z,0.80
2023-01-19T05:48:35.690Z,0.80
2023-01-19T05:51:05.105Z,0.80
2023-01-19T05:53:35.929Z,0.80
2023-01-19T05:56:09.548Z,0.80
2023-01-19T05:58:39.486Z,0.90
2023-01-19T06:01:10.707Z,0.90
2023-01-19T06:03:41.082Z,0.90
2023-01-19T06:06:10.098Z,0.90
2023-01-19T06:08:40.884Z,0.90
2023-01-19T06:11:09.887Z,1.00
2023-01-19T06:13:41.385Z,1.00
2023-01-19T06:16:11.969Z,1.00
2023-01-19T06:18:40.960Z,1.00
2023-01-19T06:21:12.478Z,1.10
2023-01-19T06:23:43.386Z,1.00
2023-01-19T06:26:12.423Z,1.10
2023-01-19T06:28:41.497Z,1.00
2023-01-19T06:31:10.541Z,1.10
2023-01-19T06:33:39.631Z,1.10
2023-01-19T06:36:08.860Z,1.10
2023-01-19T06:38:37.994Z,1.10
2023-01-19T06:41:08.669Z,1.20
2023-01-19T06:43:37.783Z,1.20
2023-01-19T06:46:07.264Z,1.10
2023-01-19T06:48:36.295Z,1.20
2023-01-19T06:51:06.031Z,1.20
2023-01-19T06:53:35.183Z,1.20
2023-01-19T06:56:05.100Z,1.20
2023-01-19T06:58:35.997Z,1.20
2023-01-19T07:01:06.598Z,1.20
2023-01-19T07:03:37.325Z,1.20
2023-01-19T07:06:08.038Z,1.30
2023-01-19T07:08:38.001Z,1.20
2023-01-19T07:11:26.575Z,1.20
2023-01-19T07:13:59.182Z,1.20
2023-01-19T07:16:28.296Z,1.10
2023-01-19T07:18:57.556Z,1.20
2023-01-19T07:21:28.935Z,1.20
2023-01-19T07:23:58.280Z,1.20
2023-01-19T07:26:28.069Z,1.20
2023-01-19T07:28:58.388Z,1.20
2023-01-19T07:31:27.843Z,1.30
2023-01-19T07:33:57.993Z,1.30
2023-01-19T07:36:26.969Z,1.30
2023-01-19T07:38:56.108Z,1.30
2023-01-19T07:41:25.220Z,1.30
2023-01-19T07:43:54.489Z,1.30
2023-01-19T07:46:25.431Z,1.30
2023-01-19T07:48:54.552Z,1.30
2023-01-19T07:51:23.743Z,1.30
2023-01-19T07:53:53.024Z,1.30
2023-01-19T07:56:22.475Z,1.40
2023-01-19T07:58:52.568Z,1.40
2023-01-19T08:01:21.508Z,1.40
2023-01-19T08:03:52.301Z,1.30
2023-01-19T08:06:23.621Z,1.30
2023-01-19T08:08:53.215Z,1.30
2023-01-19T08:11:22.373Z,1.30
2023-01-19T08:13:51.183Z,1.30
2023-01-19T08:16:20.369Z,1.30
2023-01-19T08:18:49.456Z,1.30
2023-01-19T08:21:19.918Z,1.40
2023-01-19T08:23:54.070Z,1.40
2023-01-19T08:26:29.747Z,1.50
2023-01-19T08:29:01.713Z,1.40
2023-01-19T08:31:31.196Z,1.40
2023-01-19T08:34:00.222Z,1.40
2023-01-19T08:36:30.984Z,1.40
2023-01-19T08:39:00.052Z,1.40
2023-01-19T08:41:28.886Z,1.40
2023-01-19T08:43:57.907Z,1.40
2023-01-19T08:46:27.404Z,1.40
2023-01-19T08:48:56.575Z,1.40
2023-01-19T08:51:25.639Z,1.50
2023-01-19T08:53:56.421Z,1.40
2023-01-19T08:56:25.434Z,1.40
2023-01-19T08:59:08.167Z,1.40
2023-01-19T09:01:38.761Z,1.30
2023-01-19T09:04:07.968Z,1.30
2023-01-19T09:06:36.802Z,1.30
2023-01-19T09:09:07.651Z,1.40
2023-01-19T09:11:36.772Z,1.40
2023-01-19T09:14:06.072Z,1.50
2023-01-19T09:16:35.195Z,1.50
2023-01-19T09:19:04.572Z,1.50
2023-01-19T09:21:33.540Z,1.60
2023-01-19T09:24:02.497Z,1.60
2023-01-19T09:26:33.362Z,1.70
2023-01-19T09:29:02.447Z,1.60
2023-01-19T09:31:31.550Z,1.60
2023-01-19T09:34:00.730Z,1.70
2023-01-19T09:36:30.161Z,1.70
2023-01-19T09:38:59.285Z,1.80
2023-01-19T09:41:28.508Z,1.80
2023-01-19T09:44:01.807Z,1.90
2023-01-19T09:46:38.819Z,2.00
2023-01-19T09:49:14.664Z,2.00
2023-01-19T09:51:47.799Z,2.00
2023-01-19T09:54:18.609Z,2.00
2023-01-19T09:56:52.353Z,2.00
2023-01-19T09:59:26.152Z,2.10
2023-01-19T10:02:14.387Z,2.10
2023-01-19T10:04:44.828Z,2.00
2023-01-19T10:07:23.900Z,2.00
2023-01-19T10:10:09.178Z,2.00
2023-01-19T10:12:46.702Z,1.90
2023-01-19T10:15:27.033Z,2.00
2023-01-19T10:18:09.523Z,2.00
2023-01-19T10:20:41.978Z,2.10
2023-01-19T10:23:30.708Z,2.10
2023-01-19T10:26:02.564Z,1.90
2023-01-19T10:28:32.094Z,2.00
2023-01-19T10:31:05.089Z,2.10
2023-01-19T10:33:35.666Z,2.10
2023-01-19T10:36:16.816Z,2.00
2023-01-19T10:38:46.391Z,1.90
2023-01-19T10:41:24.331Z,2.00
2023-01-19T10:44:01.407Z,2.00
2023-01-19T10:46:38.799Z,2.10
2023-01-19T10:49:08.887Z,1.90
2023-01-19T10:51:49.096Z,1.80
2023-01-19T10:54:18.565Z,1.80
2023-01-19T10:56:53.845Z,1.70
2023-01-19T10:59:35.087Z,1.60
2023-01-19T11:02:17.337Z,1.50
2023-01-19T11:04:50.121Z,1.40
2023-01-19T11:07:22.322Z,1.30
2023-01-19T11:10:07.296Z,1.30
2023-01-19T11:12:41.046Z,1.30
2023-01-19T11:15:17.272Z,1.30
2023-01-19T11:17:48.944Z,1.30
2023-01-19T11:20:24.702Z,1.30
2023-01-19T11:23:07.077Z,1.30
2023-01-19T11:25:37.885Z,1.40
2023-01-19T11:28:07.287Z,1.30
2023-01-19T11:30:36.949Z,1.30
2023-01-19T11:33:08.147Z,1.30
2023-01-19T11:35:39.639Z,1.20
2023-01-19T11:38:27.737Z,1.20
2023-01-19T11:40:58.739Z,1.10
2023-01-19T11:43:43.506Z,1.10
2023-01-19T11:46:19.191Z,1.00
2023-01-19T11:49:01.373Z,1.10
2023-01-19T11:51:37.085Z,1.00
2023-01-19T11:54:18.724Z,1.00
2023-01-19T11:56:52.010Z,1.00
2023-01-19T11:59:22.495Z,1.00
2023-01-19T12:01:57.490Z,0.90
2023-01-19T12:04:32.650Z,1.00
2023-01-19T12:07:07.650Z,1.00
2023-01-19T12:09:42.769Z,1.10
2023-01-19T12:12:25.452Z,1.10
2023-01-19T12:14:59.513Z,1.10
2023-01-19T12:17:30.883Z,1.20
2023-01-19T12:20:08.279Z,1.30
2023-01-19T12:22:49.526Z,1.40
2023-01-19T12:25:24.581Z,1.50
2023-01-19T12:27:54.847Z,1.50
2023-01-19T12:30:26.523Z,1.50
2023-01-19T12:33:22.321Z,1.50
2023-01-19T12:36:01.151Z,1.50
2023-01-19T12:38:48.023Z,1.50
2023-01-19T12:41:23.233Z,1.40
2023-01-19T12:44:19.294Z,1.50
2023-01-19T12:46:50.658Z,1.40
2023-01-19T12:49:29.895Z,1.40
2023-01-19T12:52:28.738Z,1.30
2023-01-19T12:55:08.082Z,1.40
2023-01-19T12:57:42.081Z,1.40
2023-01-19T13:00:31.636Z,1.30
2023-01-19T13:03:01.668Z,1.30
2023-01-19T13:06:00.888Z,1.30
2023-01-19T13:08:52.904Z,1.40
2023-01-19T13:11:26.704Z,1.40
2023-01-19T13:14:35.658Z,1.30
2023-01-19T13:17:30.777Z,1.50
2023-01-19T13:20:25.517Z,1.70
2023-01-19T13:23:18.392Z,1.90
2023-01-19T13:26:03.905Z,2.10
2023-01-19T13:28:40.578Z,2.20
2023-01-19T13:31:10.242Z,2.10
2023-01-19T13:33:46.297Z,2.00
2023-01-19T13:36:26.727Z,1.90
2023-01-19T13:38:57.963Z,1.80
2023-01-19T13:41:30.774Z,1.70
2023-01-19T13:44:10.563Z,1.80
2023-01-19T13:46:40.743Z,1.80
2023-01-19T13:49:18.553Z,1.70
2023-01-19T13:51:49.581Z,1.50
2023-01-19T13:54:19.567Z,1.50
2023-01-19T13:56:50.131Z,1.50
2023-01-19T13:59:20.995Z,1.40
2023-01-19T14:01:51.295Z,1.40
2023-01-19T14:04:29.292Z,1.40
2023-01-19T14:07:01.828Z,1.40
2023-01-19T14:09:30.946Z,1.30
2023-01-19T14:12:10.182Z,1.20
2023-01-19T14:14:41.350Z,1.20
2023-01-19T14:17:25.752Z,1.20
2023-01-19T14:19:56.660Z,1.10
2023-01-19T14:22:40.256Z,1.00
2023-01-19T14:25:32.066Z,0.90
2023-01-19T14:28:29.813Z,0.90
2023-01-19T14:31:02.620Z,0.80
2023-01-19T14:33:36.436Z,0.70
2023-01-19T14:36:22.133Z,0.60
2023-01-19T14:38:53.153Z,0.50
2023-01-19T14:41:28.168Z,0.40
2023-01-19T14:43:57.911Z,0.30
2023-01-19T14:46:29.387Z,0.10
2023-01-19T14:49:03.228Z,0.10
2023-01-19T14:51:32.936Z,0.00
2023-01-19T14:54:03.792Z,-0.10
2023-01-19T14:56:35.308Z,-0.10
2023-01-19T14:59:11.785Z,-0.20
2023-01-19T15:01:42.559Z,-0.20
2023-01-19T15:04:11.758Z,-0.30
2023-01-19T15:06:45.839Z,-0.30
2023-01-19T15:09:15.492Z,-0.30
2023-01-19T15:11:47.656Z,-0.40
2023-01-19T15:14:18.037Z,-0.50
2023-01-19T15:16:49.310Z,-0.60
2023-01-19T15:19:19.042Z,-0.60
2023-01-19T15:21:48.304Z,-0.70
2023-01-19T15:24:18.115Z,-0.70
2023-01-19T15:26:47.478Z,-0.70
2023-01-19T15:29:22.929Z,-0.70
2023-01-19T15:31:54.222Z,-0.70
2023-01-19T15:34:23.323Z,-0.70
2023-01-19T15:36:52.364Z,-0.60
2023-01-19T15:39:21.591Z,-0.50
2023-01-19T15:41:50.652Z,-0.60
2023-01-19T15:44:19.349Z,-0.70
2023-01-19T15:46:48.096Z,-0.70
2023-01-19T15:49:18.204Z,-0.70
2023-01-19T15:51:46.984Z,-0.80
2023-01-19T15:54:16.397Z,-0.90
2023-01-19T15:56:45.200Z,-1.00
2023-01-19T15:59:14.548Z,-1.00
2023-01-19T16:01:43.835Z,-1.10
2023-01-19T16:04:13.551Z,-1.10
2023-01-19T16:06:44.230Z,-1.00
2023-01-19T16:09:18.519Z,-0.90
2023-01-19T16:11:47.610Z,-0.90
2023-01-19T16:14:17.555Z,-0.90
2023-01-19T16:16:46.993Z,-0.90
2023-01-19T16:19:16.852Z,-0.90
2023-01-19T16:21:47.040Z,-0.90
2023-01-19T16:24:16.117Z,-0.90
2023-01-19T16:26:45.288Z,-0.90
2023-01-19T16:29:14.203Z,-1.00
2023-01-19T16:31:45.542Z,-0.90
2023-01-19T16:34:14.937Z,-1.00
2023-01-19T16:36:44.412Z,-1.00
2023-01-19T16:39:16.177Z,-0.90
2023-01-19T16:41:46.458Z,-0.90
2023-01-19T16:44:17.594Z,-0.90
2023-01-19T16:46:49.782Z,-1.00
2023-01-19T16:49:21.191Z,-1.00
2023-01-19T16:51:50.887Z,-1.00
2023-01-19T16:54:23.548Z,-1.00
2023-01-19T16:56:53.656Z,-1.10
2023-01-19T16:59:24.871Z,-1.10
2023-01-19T17:01:54.903Z,-1.10
2023-01-19T17:04:24.791Z,-1.00
2023-01-19T17:06:54.080Z,-1.00
2023-01-19T17:09:25.169Z,-1.00
2023-01-19T17:11:55.103Z,-1.00
2023-01-19T17:14:24.547Z,-1.10
2023-01-19T17:16:54.104Z,-1.10
2023-01-19T17:19:23.754Z,-1.20
2023-01-19T17:21:53.164Z,-1.20
2023-01-19T17:24:24.365Z,-1.30
2023-01-19T17:26:53.666Z,-1.30
2023-01-19T17:29:22.826Z,-1.30
2023-01-19T17:31:52.295Z,-1.40
2023-01-19T17:34:24.550Z,-1.40
2023-01-19T17:36:54.247Z,-1.50
2023-01-19T17:39:25.016Z,-1.50
2023-01-19T17:41:54.149Z,-1.50
2023-01-19T17:44:23.068Z,-1.50
2023-01-19T17:46:52.217Z,-1.50
2023-01-19T17:49:21.090Z,-1.60
2023-01-19T17:51:54.514Z,-1.30
2023-01-19T17:54:25.278Z,-1.50
2023-01-19T17:56:54.007Z,-1.60
2023-01-19T17:59:23.065Z,-1.60
2023-01-19T18:01:52.375Z,-1.50
2023-01-19T18:04:21.476Z,-1.60
2023-01-19T18:06:50.500Z,-1.60
2023-01-19T18:09:19.355Z,-1.60
2023-01-19T18:11:49.727Z,-1.70
2023-01-19T18:14:18.755Z,-1.60
2023-01-19T18:16:47.844Z,-1.60
2023-01-19T18:19:16.860Z,-1.60
2023-01-19T18:21:45.619Z,-1.60
2023-01-19T18:24:14.553Z,-1.60
2023-01-19T18:26:43.469Z,-1.50
2023-01-19T18:29:13.971Z,-1.80
2023-01-19T18:31:43.036Z,-1.80
2023-01-19T18:34:12.516Z,-1.80
2023-01-19T18:36:41.571Z,-1.60
2023-01-19T18:39:10.777Z,-1.60
2023-01-19T18:41:42.366Z,-1.60
2023-01-19T18:44:12.208Z,-1.50
2023-01-19T18:46:42.923Z,-1.50
2023-01-19T18:49:12.101Z,-1.50
2023-01-19T18:51:42.088Z,-1.50
2023-01-19T18:54:12.285Z,-1.40
2023-01-19T18:56:41.411Z,-1.30
2023-01-19T18:59:10.838Z,-1.50
2023-01-19T19:01:42.014Z,-1.50
2023-01-19T19:04:11.828Z,-1.50
2023-01-19T19:06:41.071Z,-1.50
2023-01-19T19:09:11.073Z,-1.30
2023-01-19T19:11:39.989Z,-1.30
2023-01-19T19:14:09.372Z,-1.20
2023-01-19T19:16:39.589Z,-1.30
2023-01-19T19:19:11.933Z,-1.30
2023-01-19T19:21:41.286Z,-1.30
2023-01-19T19:24:11.431Z,-1.10
2023-01-19T19:26:42.022Z,-1.20
2023-01-19T19:29:11.914Z,-1.30
2023-01-19T19:31:41.080Z,-1.30
2023-01-19T19:34:12.585Z,-1.30
2023-01-19T19:36:42.093Z,-1.30
2023-01-19T19:39:11.105Z,-1.30
2023-01-19T19:41:40.395Z,-1.10
2023-01-19T19:44:12.680Z,-1.40
2023-01-19T19:46:42.618Z,-1.40
2023-01-19T19:49:13.301Z,-1.60
2023-01-19T19:51:42.517Z,-1.60
2023-01-19T19:54:12.775Z,-1.70
2023-01-19T19:56:43.660Z,-1.70
2023-01-19T19:59:14.628Z,-1.80
2023-01-19T20:01:47.165Z,-1.80
2023-01-19T20:04:21.206Z,-1.90
2023-01-19T20:06:51.469Z,-2.00
2023-01-19T20:09:21.458Z,-2.10
2023-01-19T20:11:52.327Z,-2.10
2023-01-19T20:14:22.648Z,-2.10
2023-01-19T20:16:53.179Z,-2.10
2023-01-19T20:19:24.326Z,-2.10
2023-01-19T20:21:53.993Z,-2.00
2023-01-19T20:24:23.399Z,-2.10
2023-01-19T20:26:54.952Z,-2.20
2023-01-19T20:29:24.347Z,-2.20
2023-01-19T20:31:55.360Z,-2.20
2023-01-19T20:34:32.822Z,-2.20
2023-01-19T20:37:03.344Z,-2.30
2023-01-19T20:39:35.256Z,-2.40
2023-01-19T20:42:05.114Z,-2.30
2023-01-19T20:44:34.239Z,-2.40
2023-01-19T20:47:05.858Z,-2.40
2023-01-19T20:49:37.719Z,-2.40
2023-01-19T20:52:07.147Z,-2.30
2023-01-19T20:54:36.783Z,-2.50
2023-01-19T20:57:06.109Z,-2.50
2023-01-19T20:59:37.134Z,-2.50
2023-01-19T21:02:12.454Z,-2.50
2023-01-19T21:04:43.991Z,-2.60
2023-01-19T21:07:14.157Z,-2.60
2023-01-19T21:09:44.058Z,-2.60
2023-01-19T21:12:15.256Z,-2.60
2023-01-19T21:14:46.121Z,-2.60
2023-01-19T21:17:15.607Z,-2.60
2023-01-19T21:19:46.677Z,-2.60
2023-01-19T21:22:15.901Z,-2.60
2023-01-19T21:24:45.163Z,-2.60
2023-01-19T21:27:14.449Z,-2.60
2023-01-19T21:29:43.499Z,-2.60
2023-01-19T21:32:13.095Z,-2.50
2023-01-19T21:34:46.350Z,-2.50
2023-01-19T21:37:16.544Z,-2.50
2023-01-19T21:39:46.716Z,-2.50
2023-01-19T21:42:15.975Z,-2.50
2023-01-19T21:44:44.975Z,-2.50
2023-01-19T21:47:14.203Z,-2.50
2023-01-19T21:49:43.248Z,-2.40
2023-01-19T21:52:13.783Z,-2.40
2023-01-19T21:54:43.283Z,-2.40
2023-01-19T21:57:15.222Z,-2.50
2023-01-19T21:59:44.251Z,-2.50
2023-01-19T22:02:13.768Z,-2.40
2023-01-19T22:04:43.104Z,-2.30
2023-01-19T22:07:13.459Z,-2.20
2023-01-19T22:09:42.256Z,-2.20
2023-01-19T22:12:10.977Z,-2.20
2023-01-19T22:14:39.772Z,-2.00
2023-01-19T22:17:08.456Z,-2.20
2023-01-19T22:19:37.191Z,-2.00
2023-01-19T22:22:05.965Z,-2.20
2023-01-19T22:24:36.695Z,-2.20
2023-01-19T22:27:05.795Z,-2.30
2023-01-19T22:29:34.961Z,-2.20
2023-01-19T22:32:03.966Z,-2.30
2023-01-19T22:34:33.100Z,-2.10
2023-01-19T22:37:02.173Z,-2.20
2023-01-19T22:39:31.284Z,-2.20
2023-01-19T22:42:01.839Z,-2.10
2023-01-19T22:44:31.711Z,-2.20
2023-01-19T22:47:00.719Z,-2.20
2023-01-19T22:49:30.227Z,-2.00
2023-01-19T22:51:59.633Z,-2.30
2023-01-19T22:54:29.976Z,-2.20
2023-01-19T22:56:59.809Z,-2.20
2023-01-19T22:59:30.656Z,-2.20
2023-01-19T23:01:59.713Z,-2.40
2023-01-19T23:04:28.888Z,-2.30
2023-01-19T23:06:57.944Z,-2.10
2023-01-19T23:09:26.975Z,-2.30
2023-01-19T23:11:56.167Z,-2.20
2023-01-19T23:14:25.297Z,-2.30
2023-01-19T23:16:55.945Z,-2.20
2023-01-19T23:19:24.950Z,-2.20
2023-01-19T23:21:54.350Z,-2.30
2023-01-19T23:24:23.377Z,-2.30
2023-01-19T23:26:53.200Z,-2.40
2023-01-19T23:29:22.188Z,-2.30
2023-01-19T23:31:53.436Z,-2.30
2023-01-19T23:34:24.239Z,-2.50
2023-01-19T23:36:53.230Z,-2.60
2023-01-19T23:39:23.416Z,-2.60
2023-01-19T23:41:52.416Z,-2.60
2023-01-19T23:44:21.429Z,-2.60
2023-01-19T23:46:50.552Z,-2.60
2023-01-19T23:49:19.668Z,-2.60
2023-01-19T23:51:50.733Z,-2.60
2023-01-19T23:54:19.678Z,-2.60
2023-01-19T23:56:48.713Z,-2.70
2023-01-19T23:59:18.185Z,-2.50
